Ship Status Report: callsign BAREU51

sailwx.info

Track history (hours):
 
Tides and Currents Weather Stations Pressure Air Temp Water Temp Dewpoint Dewpoint Depression Visibility Wind Speed Wind Dir Waves Ship Positions

Callsign BAREU51 (name unknown)

Last reported at 2016-Aug-24 01:00 UTC. Time now 2016-Aug-24 02:40 UTC.
Position N 42°06' E 009°48'.

Barometer 1021.8 mb
Air temperature 23.7 ° C

Date/timePositionNaut miles runAvg speedWind from/ knotsBaromVisibWave heightAir tempDewpointWater temp
2016-Aug-24 01:00N 42°06' E 009°48'2424.4 1021.8 23.7
2016-Aug-24 00:00N 42°30' E 009°42'2424.4 1022.6 24.5
2016-Aug-23 23:00N 42°54' E 009°36'2424.4 1022.6 24.1
2016-Aug-23 22:00N 43°18' E 009°30'2625.5 1023.1 24.1
2016-Aug-23 21:00N 43°42' E 009°18'2625.5 1022.7 24.0
2016-Aug-23 20:00N 44°06' E 009°06'20 6.6 1022.4 24.1
2016-Aug-23 17:00N 44°24' E 008°54'0 0.0 1022.1 25.8
2016-Aug-23 15:00N 44°24' E 008°54'1312.7 1023.3 26.8
2016-Aug-23 14:00N 44°12' E 009°00'2625.5 1022.4 25.8
2016-Aug-23 13:00N 43°48' E 009°12'2625.5 1022.8 25.7
2016-Aug-23 12:00N 43°24' E 009°24'2020.0 1023.9 25.4
2016-Aug-23 11:00N 43°06' E 009°36'2424.4 1023.4 24.9
2016-Aug-23 10:00N 42°42' E 009°42'2424.4 1023.7 25.8
2016-Aug-23 09:00N 42°18' E 009°48'2424.4 1023.7 25.6
2016-Aug-23 08:00N 41°54' E 009°54'2424.4 1022.0 24.9
2016-Aug-23 07:00N 41°30' E 010°00'2424.4 1021.3 23.9
2016-Aug-23 06:00N 41°06' E 010°06'2424.4 1020.0 23.7
2016-Aug-23 05:00N 40°42' E 010°12'2424.0 1018.4 23.6
2016-Aug-23 04:00N 40°18' E 010°12'2424.4 1017.6 23.9
2016-Aug-23 03:00N 39°54' E 010°18'2424.0 1017.3 24.0
2016-Aug-23 02:00N 39°30' E 010°18'2424.0 1017.4 24.7
2016-Aug-23 01:00N 39°06' E 010°18'2424.5 1018.0 25.2
2016-Aug-23 00:00N 38°42' E 010°24'2424.0 1019.0 25.3
2016-Aug-22 23:00N 38°18' E 010°24'2424.0 1019.3 24.2
2016-Aug-22 22:00N 37°54' E 010°24'2424.5 1019.3 24.1
2016-Aug-22 21:00N 37°30' E 010°30'2424.0 1019.3 23.6
2016-Aug-22 20:00N 37°06' E 010°30'1918.6 1018.7 23.6
2016-Aug-22 19:00N 36°48' E 010°24'0 0.0 1021.2 23.9
2016-Aug-22 10:00N 36°48' E 010°24'2424.5 1021.3 26.3
2016-Aug-22 09:00N 37°12' E 010°30'2424.0 1021.1 24.2
2016-Aug-22 08:00N 37°36' E 010°30'3030.4 1020.1 24.0
2016-Aug-22 07:00N 38°06' E 010°24'2424.0 1018.4 24.1
2016-Aug-22 06:00N 38°30' E 010°24'2424.0 1018.5 24.3
2016-Aug-22 05:00N 38°54' E 010°24'2424.4 1017.5 24.1
2016-Aug-22 04:00N 39°18' E 010°18'2424.0 1016.6 24.7
2016-Aug-22 03:00N 39°42' E 010°18'2424.4 1016.2 25.0
2016-Aug-22 02:00N 40°06' E 010°12'2424.0 1016.7 24.9
2016-Aug-22 01:00N 40°30' E 010°12'2424.4 1016.9 24.1
2016-Aug-22 00:00N 40°54' E 010°06'2424.4 1015.9 23.4
2016-Aug-21 23:00N 41°18' E 010°00'3030.3 1015.2 23.3
2016-Aug-21 22:00N 41°48' E 009°54'2424.4 1015.1 24.0
2016-Aug-21 21:00N 42°12' E 009°48'2424.4 1016.0 25.2
2016-Aug-21 20:00N 42°36' E 009°42'2424.4 1015.8 25.4
2016-Aug-21 19:00N 43°00' E 009°36'2625.5 1015.3 24.1
2016-Aug-21 18:00N 43°24' E 009°24'2625.5 1014.5 23.6
2016-Aug-21 17:00N 43°48' E 009°12'2020.0 1014.4 24.3
2016-Aug-21 16:00N 44°06' E 009°00'19 4.6 1014.9 25.4
2016-Aug-21 12:00N 44°24' E 008°54'4 4.3 1016.3 27.0
2016-Aug-21 11:00N 44°24' E 009°00'2525.5 1016.5 26.6
2016-Aug-21 10:00N 44°00' E 009°12'2424.4 1016.2 26.0
2016-Aug-21 09:00N 43°36' E 009°18'2625.5 1016.5 25.5
2016-Aug-21 08:00N 43°12' E 009°30'2424.4 1016.2 25.4
2016-Aug-21 07:00N 42°48' E 009°36'2424.4 1016.8 25.8
2016-Aug-21 06:00N 42°24' E 009°42'1918.5 1017.1 24.6
2016-Aug-21 05:00N 42°06' E 009°48'2424.4 1016.3 24.0
2016-Aug-21 04:00N 41°42' E 009°54'2424.4 1015.9 24.0
2016-Aug-21 03:00N 41°18' E 010°00'2424.4 1015.9 24.1
2016-Aug-21 02:00N 40°54' E 010°06'2424.4 1016.3 24.9
2016-Aug-21 01:00N 40°30' E 010°12'2424.0 1016.3 25.1
2016-Aug-21 00:00N 40°06' E 010°12'2424.4 1016.3 25.2
2016-Aug-20 23:00N 39°42' E 010°18'2424.0 1016.6 26.2
2016-Aug-20 22:00N 39°18' E 010°18'2424.0 1016.7 25.1
2016-Aug-20 21:00N 38°54' E 010°18'2424.5 1016.2 25.3
2016-Aug-20 20:00N 38°30' E 010°24'2424.0 1015.9 25.4
2016-Aug-20 19:00N 38°06' E 010°24'3030.4 1015.0 25.8
2016-Aug-20 18:00N 37°36' E 010°30'2424.0 1014.4 26.4
2016-Aug-20 17:00N 37°12' E 010°30'1918.6 1013.3 28.6
2016-Aug-20 16:00N 36°54' E 010°24'6 0.6 1013.4 28.9
2016-Aug-20 06:00N 36°48' E 010°24'2424.5 1014.7 25.2
2016-Aug-20 05:00N 37°12' E 010°30'1515.3 1014.0 26.2
2016-Aug-20 04:00N 37°24' E 010°18'2424.0 1013.5 25.8
2016-Aug-20 03:00N 37°48' E 010°18'2424.5 1013.7 25.5
2016-Aug-20 02:00N 38°12' E 010°12'1918.6 1014.2 25.0
2016-Aug-20 01:00N 38°30' E 010°06'2625.8 1014.6 25.2
2016-Aug-20 00:00N 38°54' E 009°54'2424.4 1014.9 24.8
2016-Aug-19 23:00N 39°18' E 009°48'1818.0 1015.4 25.3
2016-Aug-19 22:00N 39°36' E 009°48'2424.4 1015.2 25.7
2016-Aug-19 21:00N 40°00' E 009°54'2424.0 1015.1 25.8
2016-Aug-19 20:00N 40°24' E 009°54'2424.4 1015.0 25.3
2016-Aug-19 19:00N 40°48' E 010°00'2424.0 1014.1 25.4
2016-Aug-19 18:00N 41°12' E 010°00'1918.6 1013.5 25.2
2016-Aug-19 17:00N 41°30' E 009°54'2424.0 1012.6 25.2
2016-Aug-19 16:00N 41°54' E 009°54'2424.4 1013.4 26.8
2016-Aug-19 15:00N 42°18' E 009°48'2424.4 1013.6 26.3
2016-Aug-19 14:00N 42°42' E 009°42'2020.0 1013.5 26.4
2016-Aug-19 13:00N 43°00' E 009°54'1918.5 1013.7 26.9
2016-Aug-19 12:00N 43°18' E 009°48'2222.2 1013.5 26.3
2016-Aug-19 11:00N 43°36' E 009°30'2625.5 1013.0 25.0
2016-Aug-19 10:00N 44°00' E 009°18'2222.2 1012.1 24.6
2016-Aug-19 09:00N 44°18' E 009°00'7 0.5 1012.0 26.0
2016-Aug-18 18:00N 44°24' E 008°54'2019.9 1011.7 23.9
2016-Aug-18 17:00N 44°06' E 009°06'2020.0 1011.5 24.4
2016-Aug-18 16:00N 43°48' E 009°18'2424.4 1011.6 24.7
2016-Aug-18 15:00N 43°24' E 009°24'2625.5 1011.8 25.6
2016-Aug-18 14:00N 43°00' E 009°36'2424.4 1012.8 25.6
2016-Aug-18 13:00N 42°36' E 009°42'2424.4 1013.0 25.2
2016-Aug-18 12:00N 42°12' E 009°48'2424.4 1012.9 24.7
2016-Aug-18 11:00N 41°48' E 009°54'2424.4 1013.2 25.2
2016-Aug-18 10:00N 41°24' E 010°00'2424.4 1012.6 25.1
2016-Aug-18 09:00N 41°00' E 010°06'3030.3 1013.0 26.1
2016-Aug-18 08:00N 40°30' E 010°12'2424.0 1013.2 25.6
2016-Aug-18 07:00N 40°06' E 010°12'2424.4 1013.3 25.7
2016-Aug-18 06:00N 39°42' E 010°18'2424.0 1012.9 25.1
2016-Aug-18 05:00N 39°18' E 010°18'2424.0 1012.6 23.6
2016-Aug-18 04:00N 38°54' E 010°18'2424.5 1012.1 23.9
2016-Aug-18 03:00N 38°30' E 010°24'2424.0 1011.8 24.6
2016-Aug-18 02:00N 38°06' E 010°24'2424.5 1012.5 24.0
2016-Aug-18 01:00N 37°42' E 010°30'4824.1 1013.0 24.1
2016-Aug-17 23:00N 36°54' E 010°24'8 1.3 1014.5 24.0
2016-Aug-17 17:00N 36°48' E 010°18'1515.4 1014.4 26.0
2016-Aug-17 16:00N 37°00' E 010°30'2424.0 1013.5 25.8
2016-Aug-17 15:00N 37°24' E 010°30'2424.0 1014.1 26.5
2016-Aug-17 14:00N 37°48' E 010°30'2424.5 1014.4 27.5
2016-Aug-17 13:00N 38°12' E 010°24'2424.0 1014.4 26.3
2016-Aug-17 12:00N 38°36' E 010°24'2424.5 1014.6 25.6
2016-Aug-17 11:00N 39°00' E 010°18'1818.0 1014.0 25.1
2016-Aug-17 10:00N 39°18' E 010°18'6 6.0 1015.1 25.2
2016-Aug-17 09:00N 39°24' E 010°18'2424.0 1013.6 25.2
2016-Aug-17 08:00N 39°48' E 010°18'2424.4 1014.1 25.3
2016-Aug-17 07:00N 40°12' E 010°12'2424.0 1014.0 24.8
2016-Aug-17 06:00N 40°36' E 010°12'2424.4 1014.2 25.6
2016-Aug-17 05:00N 41°00' E 010°06'2424.4 1013.5 24.0
2016-Aug-17 04:00N 41°24' E 010°00'2424.4 1013.5 22.8
2016-Aug-17 03:00N 41°48' E 009°54'2424.4 1013.8 23.4
2016-Aug-17 02:00N 42°12' E 009°48'2424.4 1014.2 24.1
2016-Aug-17 01:00N 42°36' E 009°42'2424.4 1014.4 24.3
2016-Aug-17 00:00N 43°00' E 009°36'2625.5 1015.2 24.1
2016-Aug-16 23:00N 43°24' E 009°24'2625.5 1014.7 23.4
2016-Aug-16 22:00N 43°48' E 009°12'2625.5 1015.0 23.7
2016-Aug-16 21:00N 44°12' E 009°00'6 0.7 1015.0 23.6
2016-Aug-16 13:00N 44°18' E 009°00'2625.5 1017.4 24.5
2016-Aug-16 12:00N 43°54' E 009°12'2625.5 1017.9 25.0
2016-Aug-16 11:00N 43°30' E 009°24'2424.4 1017.9 25.7
2016-Aug-16 10:00N 43°06' E 009°30'2625.6 1018.2 25.5
2016-Aug-16 09:00N 42°42' E 009°42'2424.4 1018.7 25.9
2016-Aug-16 08:00N 42°18' E 009°48'2424.4 1018.7 24.7
2016-Aug-16 07:00N 41°54' E 009°54'2424.4 1018.7 24.1
2016-Aug-16 06:00N 41°30' E 010°00'2424.0 1018.6 24.3
2016-Aug-16 05:00N 41°06' E 010°00'2424.4 1018.6 23.9
2016-Aug-16 04:00N 40°42' E 010°06'2424.4 1018.7 23.5
2016-Aug-16 03:00N 40°18' E 010°12'2424.4 1018.8 23.7
2016-Aug-16 02:00N 39°54' E 010°18'2424.0 1019.0 23.7
2016-Aug-16 01:00N 39°30' E 010°18'2424.0 1019.4 23.7
2016-Aug-16 00:00N 39°06' E 010°18'2424.5 1019.7 23.7
2016-Aug-15 23:00N 38°42' E 010°24'3030.0 1019.6 23.7
2016-Aug-15 22:00N 38°12' E 010°24'2424.5 1019.8 23.8
2016-Aug-15 21:00N 37°48' E 010°30'2424.0 1019.2 23.7
2016-Aug-15 20:00N 37°24' E 010°30'2424.0 1018.9 24.3
2016-Aug-15 19:00N 37°00' E 010°30'15 7.7 1018.3 24.9
2016-Aug-15 17:00N 36°48' E 010°18'0 0.0 1018.0 27.6
2016-Aug-15 10:00N 36°48' E 010°18'1515.4 1020.9 27.1
2016-Aug-15 09:00N 37°00' E 010°30'2424.0 1021.1 24.4
2016-Aug-15 08:00N 37°24' E 010°30'2424.0 1020.6 24.6
2016-Aug-15 07:00N 37°48' E 010°30'2424.5 1020.9 24.3
2016-Aug-15 06:00N 38°12' E 010°24'2424.0 1020.8 23.8
2016-Aug-15 05:00N 38°36' E 010°24'2424.5 1021.0 23.5
2016-Aug-15 04:00N 39°00' E 010°18'2424.0 1021.0 23.3
2016-Aug-15 03:00N 39°24' E 010°18'2424.0 1021.0 23.3
2016-Aug-15 02:00N 39°48' E 010°18'3030.3 1021.1 23.5
2016-Aug-15 01:00N 40°18' E 010°12'2424.4 1021.4 23.7
2016-Aug-15 00:00N 40°42' E 010°06'2424.0 1021.6 23.9
2016-Aug-14 23:00N 41°06' E 010°06'2424.4 1022.1 23.4
2016-Aug-14 22:00N 41°30' E 010°00'2424.4 1022.2 22.9
2016-Aug-14 21:00N 41°54' E 009°54'2424.4 1022.0 23.5
2016-Aug-14 20:00N 42°18' E 009°48'2424.4 1022.0 24.3
2016-Aug-14 19:00N 42°42' E 009°42'2424.4 1021.8 24.9
2016-Aug-14 18:00N 43°06' E 009°36'2625.5 1021.2 24.5
2016-Aug-14 17:00N 43°30' E 009°24'2020.0 1021.4 25.1
2016-Aug-14 16:00N 43°48' E 009°12'2625.5 1021.9 25.3
2016-Aug-14 15:00N 44°12' E 009°00'13 1.6 1022.2 25.7
2016-Aug-14 07:00N 44°24' E 008°54'0 0.0 1023.7 24.8
2016-Aug-14 06:00N 44°24' E 008°54'0 0.0 1023.5 24.7
2016-Aug-14 01:00N 44°24' E 008°54'   1023.6 22.7
Track history (hours):
 
Tides and Currents Weather Stations Pressure Air Temp Water Temp Dewpoint Dewpoint Depression Visibility Wind Speed Wind Dir Waves Ship Positions

Callsign BAREU51 (name unknown)

Last reported at 2016-Aug-24 01:00 UTC. Time now 2016-Aug-24 02:40 UTC.
Position N 42°06' E 009°48'.

Barometer 1021.8 mb
Air temperature 23.7 ° C

Date/timePositionNaut miles runAvg speedWind from/ knotsBaromVisibWave heightAir tempDewpointWater temp
2016-Aug-24 01:00N 42°06' E 009°48'2424.4 1021.8 23.7
2016-Aug-24 00:00N 42°30' E 009°42'2424.4 1022.6 24.5
2016-Aug-23 23:00N 42°54' E 009°36'2424.4 1022.6 24.1
2016-Aug-23 22:00N 43°18' E 009°30'2625.5 1023.1 24.1
2016-Aug-23 21:00N 43°42' E 009°18'2625.5 1022.7 24.0
2016-Aug-23 20:00N 44°06' E 009°06'20 6.6 1022.4 24.1
2016-Aug-23 17:00N 44°24' E 008°54'0 0.0 1022.1 25.8
2016-Aug-23 15:00N 44°24' E 008°54'1312.7 1023.3 26.8
2016-Aug-23 14:00N 44°12' E 009°00'2625.5 1022.4 25.8
2016-Aug-23 13:00N 43°48' E 009°12'2625.5 1022.8 25.7
2016-Aug-23 12:00N 43°24' E 009°24'2020.0 1023.9 25.4
2016-Aug-23 11:00N 43°06' E 009°36'2424.4 1023.4 24.9
2016-Aug-23 10:00N 42°42' E 009°42'2424.4 1023.7 25.8
2016-Aug-23 09:00N 42°18' E 009°48'2424.4 1023.7 25.6
2016-Aug-23 08:00N 41°54' E 009°54'2424.4 1022.0 24.9
2016-Aug-23 07:00N 41°30' E 010°00'2424.4 1021.3 23.9
2016-Aug-23 06:00N 41°06' E 010°06'2424.4 1020.0 23.7
2016-Aug-23 05:00N 40°42' E 010°12'2424.0 1018.4 23.6
2016-Aug-23 04:00N 40°18' E 010°12'2424.4 1017.6 23.9
2016-Aug-23 03:00N 39°54' E 010°18'2424.0 1017.3 24.0
2016-Aug-23 02:00N 39°30' E 010°18'2424.0 1017.4 24.7
2016-Aug-23 01:00N 39°06' E 010°18'2424.5 1018.0 25.2
2016-Aug-23 00:00N 38°42' E 010°24'2424.0 1019.0 25.3
2016-Aug-22 23:00N 38°18' E 010°24'2424.0 1019.3 24.2
2016-Aug-22 22:00N 37°54' E 010°24'2424.5 1019.3 24.1
2016-Aug-22 21:00N 37°30' E 010°30'2424.0 1019.3 23.6
2016-Aug-22 20:00N 37°06' E 010°30'1918.6 1018.7 23.6
2016-Aug-22 19:00N 36°48' E 010°24'0 0.0 1021.2 23.9
2016-Aug-22 10:00N 36°48' E 010°24'2424.5 1021.3 26.3
2016-Aug-22 09:00N 37°12' E 010°30'2424.0 1021.1 24.2
2016-Aug-22 08:00N 37°36' E 010°30'3030.4 1020.1 24.0
2016-Aug-22 07:00N 38°06' E 010°24'2424.0 1018.4 24.1
2016-Aug-22 06:00N 38°30' E 010°24'2424.0 1018.5 24.3
2016-Aug-22 05:00N 38°54' E 010°24'2424.4 1017.5 24.1
2016-Aug-22 04:00N 39°18' E 010°18'2424.0 1016.6 24.7
2016-Aug-22 03:00N 39°42' E 010°18'2424.4 1016.2 25.0
2016-Aug-22 02:00N 40°06' E 010°12'2424.0 1016.7 24.9
2016-Aug-22 01:00N 40°30' E 010°12'2424.4 1016.9 24.1
2016-Aug-22 00:00N 40°54' E 010°06'2424.4 1015.9 23.4
2016-Aug-21 23:00N 41°18' E 010°00'3030.3 1015.2 23.3
2016-Aug-21 22:00N 41°48' E 009°54'2424.4 1015.1 24.0
2016-Aug-21 21:00N 42°12' E 009°48'2424.4 1016.0 25.2
2016-Aug-21 20:00N 42°36' E 009°42'2424.4 1015.8 25.4
2016-Aug-21 19:00N 43°00' E 009°36'2625.5 1015.3 24.1
2016-Aug-21 18:00N 43°24' E 009°24'2625.5 1014.5 23.6
2016-Aug-21 17:00N 43°48' E 009°12'2020.0 1014.4 24.3
2016-Aug-21 16:00N 44°06' E 009°00'19 4.6 1014.9 25.4
2016-Aug-21 12:00N 44°24' E 008°54'4 4.3 1016.3 27.0
2016-Aug-21 11:00N 44°24' E 009°00'2525.5 1016.5 26.6
2016-Aug-21 10:00N 44°00' E 009°12'2424.4 1016.2 26.0
2016-Aug-21 09:00N 43°36' E 009°18'2625.5 1016.5 25.5
2016-Aug-21 08:00N 43°12' E 009°30'2424.4 1016.2 25.4
2016-Aug-21 07:00N 42°48' E 009°36'2424.4 1016.8 25.8
2016-Aug-21 06:00N 42°24' E 009°42'1918.5 1017.1 24.6
2016-Aug-21 05:00N 42°06' E 009°48'2424.4 1016.3 24.0
2016-Aug-21 04:00N 41°42' E 009°54'2424.4 1015.9 24.0
2016-Aug-21 03:00N 41°18' E 010°00'2424.4 1015.9 24.1
2016-Aug-21 02:00N 40°54' E 010°06'2424.4 1016.3 24.9
2016-Aug-21 01:00N 40°30' E 010°12'2424.0 1016.3 25.1
2016-Aug-21 00:00N 40°06' E 010°12'2424.4 1016.3 25.2
2016-Aug-20 23:00N 39°42' E 010°18'2424.0 1016.6 26.2
2016-Aug-20 22:00N 39°18' E 010°18'2424.0 1016.7 25.1
2016-Aug-20 21:00N 38°54' E 010°18'2424.5 1016.2 25.3
2016-Aug-20 20:00N 38°30' E 010°24'2424.0 1015.9 25.4
2016-Aug-20 19:00N 38°06' E 010°24'3030.4 1015.0 25.8
2016-Aug-20 18:00N 37°36' E 010°30'2424.0 1014.4 26.4
2016-Aug-20 17:00N 37°12' E 010°30'1918.6 1013.3 28.6
2016-Aug-20 16:00N 36°54' E 010°24'6 0.6 1013.4 28.9
2016-Aug-20 06:00N 36°48' E 010°24'2424.5 1014.7 25.2
2016-Aug-20 05:00N 37°12' E 010°30'1515.3 1014.0 26.2
2016-Aug-20 04:00N 37°24' E 010°18'2424.0 1013.5 25.8
2016-Aug-20 03:00N 37°48' E 010°18'2424.5 1013.7 25.5
2016-Aug-20 02:00N 38°12' E 010°12'1918.6 1014.2 25.0
2016-Aug-20 01:00N 38°30' E 010°06'2625.8 1014.6 25.2
2016-Aug-20 00:00N 38°54' E 009°54'2424.4 1014.9 24.8
2016-Aug-19 23:00N 39°18' E 009°48'1818.0 1015.4 25.3
2016-Aug-19 22:00N 39°36' E 009°48'2424.4 1015.2 25.7
2016-Aug-19 21:00N 40°00' E 009°54'2424.0 1015.1 25.8
2016-Aug-19 20:00N 40°24' E 009°54'2424.4 1015.0 25.3
2016-Aug-19 19:00N 40°48' E 010°00'2424.0 1014.1 25.4
2016-Aug-19 18:00N 41°12' E 010°00'1918.6 1013.5 25.2
2016-Aug-19 17:00N 41°30' E 009°54'2424.0 1012.6 25.2
2016-Aug-19 16:00N 41°54' E 009°54'2424.4 1013.4 26.8
2016-Aug-19 15:00N 42°18' E 009°48'2424.4 1013.6 26.3
2016-Aug-19 14:00N 42°42' E 009°42'2020.0 1013.5 26.4
2016-Aug-19 13:00N 43°00' E 009°54'1918.5 1013.7 26.9
2016-Aug-19 12:00N 43°18' E 009°48'2222.2 1013.5 26.3
2016-Aug-19 11:00N 43°36' E 009°30'2625.5 1013.0 25.0
2016-Aug-19 10:00N 44°00' E 009°18'2222.2 1012.1 24.6
2016-Aug-19 09:00N 44°18' E 009°00'7 0.5 1012.0 26.0
2016-Aug-18 18:00N 44°24' E 008°54'2019.9 1011.7 23.9
2016-Aug-18 17:00N 44°06' E 009°06'2020.0 1011.5 24.4
2016-Aug-18 16:00N 43°48' E 009°18'2424.4 1011.6 24.7
2016-Aug-18 15:00N 43°24' E 009°24'2625.5 1011.8 25.6
2016-Aug-18 14:00N 43°00' E 009°36'2424.4 1012.8 25.6
2016-Aug-18 13:00N 42°36' E 009°42'2424.4 1013.0 25.2
2016-Aug-18 12:00N 42°12' E 009°48'2424.4 1012.9 24.7
2016-Aug-18 11:00N 41°48' E 009°54'2424.4 1013.2 25.2
2016-Aug-18 10:00N 41°24' E 010°00'2424.4 1012.6 25.1
2016-Aug-18 09:00N 41°00' E 010°06'3030.3 1013.0 26.1
2016-Aug-18 08:00N 40°30' E 010°12'2424.0 1013.2 25.6
2016-Aug-18 07:00N 40°06' E 010°12'2424.4 1013.3 25.7
2016-Aug-18 06:00N 39°42' E 010°18'2424.0 1012.9 25.1
2016-Aug-18 05:00N 39°18' E 010°18'2424.0 1012.6 23.6
2016-Aug-18 04:00N 38°54' E 010°18'2424.5 1012.1 23.9
2016-Aug-18 03:00N 38°30' E 010°24'2424.0 1011.8 24.6
2016-Aug-18 02:00N 38°06' E 010°24'2424.5 1012.5 24.0
2016-Aug-18 01:00N 37°42' E 010°30'4824.1 1013.0 24.1
2016-Aug-17 23:00N 36°54' E 010°24'8 1.3 1014.5 24.0
2016-Aug-17 17:00N 36°48' E 010°18'1515.4 1014.4 26.0
2016-Aug-17 16:00N 37°00' E 010°30'2424.0 1013.5 25.8
2016-Aug-17 15:00N 37°24' E 010°30'2424.0 1014.1 26.5
2016-Aug-17 14:00N 37°48' E 010°30'2424.5 1014.4 27.5
2016-Aug-17 13:00N 38°12' E 010°24'2424.0 1014.4 26.3
2016-Aug-17 12:00N 38°36' E 010°24'2424.5 1014.6 25.6
2016-Aug-17 11:00N 39°00' E 010°18'1818.0 1014.0 25.1
2016-Aug-17 10:00N 39°18' E 010°18'6 6.0 1015.1 25.2
2016-Aug-17 09:00N 39°24' E 010°18'2424.0 1013.6 25.2
2016-Aug-17 08:00N 39°48' E 010°18'2424.4 1014.1 25.3
2016-Aug-17 07:00N 40°12' E 010°12'2424.0 1014.0 24.8
2016-Aug-17 06:00N 40°36' E 010°12'2424.4 1014.2 25.6
2016-Aug-17 05:00N 41°00' E 010°06'2424.4 1013.5 24.0
2016-Aug-17 04:00N 41°24' E 010°00'2424.4 1013.5 22.8
2016-Aug-17 03:00N 41°48' E 009°54'2424.4 1013.8 23.4
2016-Aug-17 02:00N 42°12' E 009°48'2424.4 1014.2 24.1
2016-Aug-17 01:00N 42°36' E 009°42'2424.4 1014.4 24.3
2016-Aug-17 00:00N 43°00' E 009°36'2625.5 1015.2 24.1
2016-Aug-16 23:00N 43°24' E 009°24'2625.5 1014.7 23.4
2016-Aug-16 22:00N 43°48' E 009°12'2625.5 1015.0 23.7
2016-Aug-16 21:00N 44°12' E 009°00'6 0.7 1015.0 23.6
2016-Aug-16 13:00N 44°18' E 009°00'2625.5 1017.4 24.5
2016-Aug-16 12:00N 43°54' E 009°12'2625.5 1017.9 25.0
2016-Aug-16 11:00N 43°30' E 009°24'2424.4 1017.9 25.7
2016-Aug-16 10:00N 43°06' E 009°30'2625.6 1018.2 25.5
2016-Aug-16 09:00N 42°42' E 009°42'2424.4 1018.7 25.9
2016-Aug-16 08:00N 42°18' E 009°48'2424.4 1018.7 24.7
2016-Aug-16 07:00N 41°54' E 009°54'2424.4 1018.7 24.1
2016-Aug-16 06:00N 41°30' E 010°00'2424.0 1018.6 24.3
2016-Aug-16 05:00N 41°06' E 010°00'2424.4 1018.6 23.9
2016-Aug-16 04:00N 40°42' E 010°06'2424.4 1018.7 23.5
2016-Aug-16 03:00N 40°18' E 010°12'2424.4 1018.8 23.7
2016-Aug-16 02:00N 39°54' E 010°18'2424.0 1019.0 23.7
2016-Aug-16 01:00N 39°30' E 010°18'2424.0 1019.4 23.7
2016-Aug-16 00:00N 39°06' E 010°18'2424.5 1019.7 23.7
2016-Aug-15 23:00N 38°42' E 010°24'3030.0 1019.6 23.7
2016-Aug-15 22:00N 38°12' E 010°24'2424.5 1019.8 23.8
2016-Aug-15 21:00N 37°48' E 010°30'2424.0 1019.2 23.7
2016-Aug-15 20:00N 37°24' E 010°30'2424.0 1018.9 24.3
2016-Aug-15 19:00N 37°00' E 010°30'15 7.7 1018.3 24.9
2016-Aug-15 17:00N 36°48' E 010°18'0 0.0 1018.0 27.6
2016-Aug-15 10:00N 36°48' E 010°18'1515.4 1020.9 27.1
2016-Aug-15 09:00N 37°00' E 010°30'2424.0 1021.1 24.4
2016-Aug-15 08:00N 37°24' E 010°30'2424.0 1020.6 24.6
2016-Aug-15 07:00N 37°48' E 010°30'2424.5 1020.9 24.3
2016-Aug-15 06:00N 38°12' E 010°24'2424.0 1020.8 23.8
2016-Aug-15 05:00N 38°36' E 010°24'2424.5 1021.0 23.5
2016-Aug-15 04:00N 39°00' E 010°18'2424.0 1021.0 23.3
2016-Aug-15 03:00N 39°24' E 010°18'2424.0 1021.0 23.3
2016-Aug-15 02:00N 39°48' E 010°18'3030.3 1021.1 23.5
2016-Aug-15 01:00N 40°18' E 010°12'2424.4 1021.4 23.7
2016-Aug-15 00:00N 40°42' E 010°06'2424.0 1021.6 23.9
2016-Aug-14 23:00N 41°06' E 010°06'2424.4 1022.1 23.4
2016-Aug-14 22:00N 41°30' E 010°00'2424.4 1022.2 22.9
2016-Aug-14 21:00N 41°54' E 009°54'2424.4 1022.0 23.5
2016-Aug-14 20:00N 42°18' E 009°48'2424.4 1022.0 24.3
2016-Aug-14 19:00N 42°42' E 009°42'2424.4 1021.8 24.9
2016-Aug-14 18:00N 43°06' E 009°36'2625.5 1021.2 24.5
2016-Aug-14 17:00N 43°30' E 009°24'2020.0 1021.4 25.1
2016-Aug-14 16:00N 43°48' E 009°12'2625.5 1021.9 25.3
2016-Aug-14 15:00N 44°12' E 009°00'13 1.6 1022.2 25.7
2016-Aug-14 07:00N 44°24' E 008°54'0 0.0 1023.7 24.8
2016-Aug-14 06:00N 44°24' E 008°54'0 0.0 1023.5 24.7
2016-Aug-14 01:00N 44°24' E 008°54'   1023.6 22.7

Dump ship's entire track history